Clemente Onelli, Argentina
Current Conditions -  °F | °C
As of 2:00 PM on Thursday 30 Oct 2014 (Local Time) from SAZS Reporting Station
Rain Showers Rain Showers  
Wind Chill: 32°   Ceiling: Unl
Heat Index: 43°   Visibility: 6mi
Dew Point: 30°   Wind: 33mph
Humidity: 61%   Direction: 320°NW
Pressure: 29.83"   Gusts: 48mph
Location:  41.13°S, 70.58°W
Report Text: SAZS 301700Z 32029G42KT 9000 VCSH SCT025SCT030 06/M01 Q1010
Loading
Personal Weather Stations






























Interactive Weather Map New forecast layout! Learn more

10-Day Weather Forecast

Advertisements
Track Severe Weather on mobile